Time;durP1;ratioP1;P1;durP2;ratioP2;P2;SDS_P1;SDS_P2;PMS_P1;PMS_P2;Temp;Humidity;BMP_temperature;BMP_pressure;BME280_temperature;BME280_humidity;BME280_pressure;Samples;Min_cycle;Max_cycle;Signal;HPM_P1;HPM_P2
2022/04/12 00:00:31;;;;;;;1.13;0.80;;;18.40;47.80;;;;;;6194288;23;20196;-85
2022/04/12 00:02:57;;;;;;;1.25;0.80;;;18.30;47.90;;;;;;6194669;23;20156;-88
2022/04/12 00:05:23;;;;;;;3.75;1.00;;;18.30;48.30;;;;;;6169764;23;20149;-85
2022/04/12 00:07:50;;;;;;;2.65;0.90;;;18.30;48.00;;;;;;6194965;23;20141;-86
2022/04/12 00:10:16;;;;;;;1.25;1.05;;;18.40;48.10;;;;;;6219631;23;20130;-85
2022/04/12 00:12:41;;;;;;;2.45;0.90;;;18.30;48.00;;;;;;6169661;23;20137;-85
2022/04/12 00:15:09;;;;;;;1.95;1.00;;;18.30;48.00;;;;;;6169526;23;20173;-86
2022/04/12 00:20:18;;;;;;;1.92;1.02;;;18.20;47.90;;;;;;6201632;23;20509;-87
2022/04/12 00:22:46;;;;;;;1.73;0.90;;;18.30;47.90;;;;;;6194980;23;20199;-86
2022/04/12 00:25:18;;;;;;;2.65;1.10;;;18.30;47.80;;;;;;6144564;23;20154;-85
2022/04/12 00:27:47;;;;;;;2.58;0.90;;;18.30;48.10;;;;;;6145272;23;20232;-85
2022/04/12 00:30:15;;;;;;;1.73;1.10;;;18.30;48.20;;;;;;6144137;23;20184;-84
2022/04/12 00:32:43;;;;;;;1.08;0.82;;;18.30;48.10;;;;;;6168466;23;20157;-86
2022/04/12 00:35:12;;;;;;;2.75;1.23;;;18.20;48.10;;;;;;6168160;23;20208;-86
2022/04/12 00:37:38;;;;;;;3.20;1.15;;;18.30;48.00;;;;;;6168852;23;20153;-84
2022/04/12 00:40:08;;;;;;;2.55;0.98;;;18.30;48.10;;;;;;6169491;23;20640;-86
2022/04/12 00:42:35;;;;;;;1.23;0.90;;;18.30;48.10;;;;;;6144352;23;20185;-85
2022/04/12 00:45:02;;;;;;;2.75;0.93;;;18.20;48.00;;;;;;6168690;23;20157;-85
2022/04/12 00:47:31;;;;;;;1.67;0.90;;;18.30;48.10;;;;;;6169910;23;20153;-84
2022/04/12 00:49:58;;;;;;;3.08;1.17;;;18.30;48.10;;;;;;6144104;23;20161;-86
2022/04/12 00:52:25;;;;;;;2.10;1.05;;;18.30;48.10;;;;;;6169215;23;20195;-87
2022/04/12 00:54:53;;;;;;;3.15;1.13;;;18.30;48.20;;;;;;6194309;23;20165;-86
2022/04/12 00:57:19;;;;;;;1.67;0.88;;;18.30;48.30;;;;;;6195165;23;20148;-86
2022/04/12 00:59:45;;;;;;;2.35;0.95;;;18.30;48.10;;;;;;6169169;23;20205;-86
2022/04/12 01:02:11;;;;;;;1.55;1.00;;;18.20;48.30;;;;;;6219929;23;20217;-85
2022/04/12 01:04:37;;;;;;;1.42;1.00;;;18.20;48.20;;;;;;6169247;23;20149;-85
2022/04/12 01:07:03;;;;;;;1.98;0.95;;;18.20;48.30;;;;;;6169348;23;20223;-88
2022/04/12 01:09:29;;;;;;;1.65;0.93;;;18.20;48.40;;;;;;6194860;23;20134;-86
2022/04/12 01:11:55;;;;;;;1.60;0.85;;;18.20;48.30;;;;;;6219449;23;20129;-87
2022/04/12 01:14:22;;;;;;;1.95;0.95;;;18.20;48.20;;;;;;6169604;23;20473;-87
2022/04/12 01:16:48;;;;;;;2.13;1.10;;;18.20;48.30;;;;;;6194569;23;20187;-87
2022/04/12 01:19:14;;;;;;;2.83;1.20;;;18.10;48.30;;;;;;6169590;23;20230;-87
2022/04/12 01:21:43;;;;;;;1.45;0.80;;;18.30;48.40;;;;;;6171031;23;20203;-87
2022/04/12 01:24:12;;;;;;;1.20;0.90;;;18.10;48.50;;;;;;6196214;23;20180;-87
2022/04/12 01:26:40;;;;;;;0.90;0.80;;;18.20;48.50;;;;;;6170475;23;20620;-87
2022/04/12 01:29:09;;;;;;;2.05;0.95;;;18.20;48.30;;;;;;6145423;23;20585;-86
2022/04/12 01:31:37;;;;;;;1.23;0.95;;;18.20;48.50;;;;;;6170218;23;20150;-84
2022/04/12 01:34:06;;;;;;;2.95;1.08;;;18.20;48.50;;;;;;6170287;23;20160;-86
2022/04/12 01:36:36;;;;;;;1.42;1.15;;;18.20;48.30;;;;;;6146385;23;20185;-86
2022/04/12 01:39:05;;;;;;;1.35;1.00;;;18.20;48.50;;;;;;6145660;23;20291;-85
2022/04/12 01:41:31;;;;;;;1.58;1.05;;;18.20;48.40;;;;;;6170291;23;20145;-84
2022/04/12 01:43:58;;;;;;;2.88;1.00;;;18.20;48.60;;;;;;6171702;23;20157;-84
2022/04/12 01:46:26;;;;;;;1.00;0.90;;;18.20;48.20;;;;;;6171530;23;20157;-85
2022/04/12 01:48:52;;;;;;;2.38;0.95;;;18.20;48.30;;;;;;6197124;23;20636;-86
2022/04/12 01:51:18;;;;;;;1.35;0.85;;;18.20;48.50;;;;;;6171978;23;20146;-86
2022/04/12 01:53:44;;;;;;;2.17;0.90;;;18.10;48.50;;;;;;6172110;23;20156;-85
2022/04/12 01:56:11;;;;;;;1.30;0.80;;;18.20;48.60;;;;;;6198183;23;20621;-87
2022/04/12 01:58:38;;;;;;;1.00;0.85;;;18.10;48.70;;;;;;6200046;23;20149;-85
2022/04/12 02:01:03;;;;;;;3.50;1.10;;;18.10;48.70;;;;;;6199772;23;20193;-85
2022/04/12 02:03:32;;;;;;;1.95;1.10;;;18.10;48.50;;;;;;6195747;23;20137;-86
2022/04/12 02:05:59;;;;;;;1.60;1.05;;;18.20;48.60;;;;;;6195951;23;20141;-85
2022/04/12 02:08:28;;;;;;;1.85;1.20;;;18.10;48.40;;;;;;6195793;23;20175;-87
2022/04/12 02:10:55;;;;;;;1.30;0.85;;;18.10;48.70;;;;;;6145073;23;20153;-86
2022/04/12 02:13:22;;;;;;;1.00;0.80;;;18.10;48.60;;;;;;6170018;23;20149;-87
2022/04/12 02:15:49;;;;;;;2.60;1.00;;;18.10;48.50;;;;;;6145049;23;20195;-85
2022/04/12 02:18:14;;;;;;;1.88;0.98;;;18.10;48.70;;;;;;6169665;23;20486;-87
2022/04/12 02:20:40;;;;;;;1.50;0.70;;;18.10;48.50;;;;;;6221187;23;20133;-86
2022/04/12 02:23:06;;;;;;;1.60;1.00;;;18.10;48.70;;;;;;6170205;23;20153;-85
2022/04/12 02:25:33;;;;;;;1.45;1.10;;;18.10;48.60;;;;;;6170757;23;20145;-85
2022/04/12 02:27:59;;;;;;;2.20;1.10;;;18.10;48.80;;;;;;6170831;23;20146;-88
2022/04/12 02:30:24;;;;;;;2.08;0.80;;;18.10;48.60;;;;;;6195652;23;20188;-87
2022/04/12 02:32:50;;;;;;;2.17;1.00;;;18.10;48.70;;;;;;6170510;23;20140;-86
2022/04/12 02:35:16;;;;;;;1.85;1.00;;;18.10;48.60;;;;;;6195671;23;20165;-87
2022/04/12 02:37:41;;;;;;;1.33;0.90;;;18.10;48.70;;;;;;6195464;23;20140;-85
2022/04/12 02:40:07;;;;;;;1.17;0.93;;;18.10;48.50;;;;;;6220535;23;20126;-85
2022/04/12 02:42:33;;;;;;;2.70;0.85;;;18.10;48.90;;;;;;6170757;23;20142;-87
2022/04/12 02:44:59;;;;;;;2.60;0.80;;;18.10;48.60;;;;;;6247444;23;20191;-85
2022/04/12 02:47:25;;;;;;;1.85;0.80;;;18.10;48.70;;;;;;6195380;23;20217;-87
2022/04/12 02:49:53;;;;;;;1.58;0.80;;;18.10;48.60;;;;;;6171024;23;20172;-85
2022/04/12 02:52:20;;;;;;;1.40;0.68;;;18.00;48.80;;;;;;6144716;23;20153;-85
2022/04/12 02:54:46;;;;;;;1.20;1.10;;;18.10;48.80;;;;;;6169506;23;20189;-85
2022/04/12 02:57:12;;;;;;;1.40;0.90;;;18.10;48.90;;;;;;6195252;23;20153;-85
2022/04/12 02:59:37;;;;;;;1.00;0.85;;;18.10;48.60;;;;;;6194825;23;20193;-85
2022/04/12 03:02:03;;;;;;;3.28;1.00;;;18.10;48.80;;;;;;6195396;23;20552;-86
2022/04/12 03:04:28;;;;;;;2.90;1.10;;;18.00;48.50;;;;;;6247031;23;20561;-86
2022/04/12 03:06:54;;;;;;;1.35;0.98;;;18.10;48.80;;;;;;6194941;23;20145;-85
2022/04/12 03:09:20;;;;;;;1.40;0.90;;;18.00;48.80;;;;;;6195462;23;20141;-87
2022/04/12 03:11:47;;;;;;;1.38;1.10;;;18.10;48.90;;;;;;6247029;23;20130;-85
2022/04/12 03:14:14;;;;;;;1.95;0.82;;;18.10;48.90;;;;;;6144937;23;20165;-87
2022/04/12 03:16:42;;;;;;;2.55;0.90;;;18.10;48.90;;;;;;6169047;23;20185;-86
2022/04/12 03:19:10;;;;;;;1.75;0.80;;;18.00;48.90;;;;;;6145020;23;20152;-86
2022/04/12 03:21:37;;;;;;;2.38;1.00;;;18.00;49.00;;;;;;6219925;23;20149;-86
2022/04/12 03:24:08;;;;;;;1.42;0.88;;;18.00;48.70;;;;;;6144540;23;20180;-87
2022/04/12 03:26:35;;;;;;;0.98;0.77;;;18.10;49.00;;;;;;6145725;23;20227;-85
2022/04/12 03:29:01;;;;;;;1.88;0.88;;;18.00;48.90;;;;;;6169082;23;20188;-86
2022/04/12 03:31:27;;;;;;;2.53;0.90;;;18.00;48.70;;;;;;6170558;23;20477;-87
2022/04/12 03:33:53;;;;;;;2.03;1.05;;;18.00;49.00;;;;;;6194793;23;20134;-85
2022/04/12 03:36:18;;;;;;;0.88;0.73;;;18.00;48.80;;;;;;6194982;23;20578;-86
2022/04/12 03:38:49;;;;;;;2.17;1.10;;;18.00;48.80;;;;;;6169692;23;20184;-85
2022/04/12 03:41:18;;;;;;;1.67;0.77;;;18.00;49.00;;;;;;6171508;23;20232;-87
2022/04/12 03:43:45;;;;;;;1.40;0.98;;;18.00;49.10;;;;;;6170639;23;20141;-87
2022/04/12 03:46:11;;;;;;;1.73;1.00;;;18.00;48.80;;;;;;6219904;23;20165;-84
2022/04/12 03:48:36;;;;;;;0.98;0.73;;;18.00;49.00;;;;;;6220136;23;20188;-87
2022/04/12 03:51:04;;;;;;;2.38;0.95;;;18.00;48.80;;;;;;6194600;23;20152;-85
2022/04/12 03:53:30;;;;;;;2.15;1.23;;;18.00;49.10;;;;;;6170291;23;20199;-85
2022/04/12 03:55:57;;;;;;;2.15;1.10;;;17.90;48.80;;;;;;6194779;23;20165;-85
2022/04/12 03:58:23;;;;;;;1.05;0.82;;;18.00;48.90;;;;;;6220105;23;20212;-87
2022/04/12 04:00:50;;;;;;;1.90;0.90;;;18.00;49.00;;;;;;6195402;23;20204;-86
2022/04/12 04:03:20;;;;;;;1.92;1.10;;;18.00;49.10;;;;;;6194454;23;20165;-86
2022/04/12 04:05:46;;;;;;;1.10;0.80;;;18.00;48.90;;;;;;6144074;23;20153;-87
2022/04/12 04:08:12;;;;;;;1.65;0.93;;;18.00;49.10;;;;;;6219643;23;20191;-86
2022/04/12 04:10:38;;;;;;;2.90;1.25;;;18.00;49.10;;;;;;6220054;23;20137;-86
2022/04/12 04:13:08;;;;;;;1.65;1.00;;;18.00;49.10;;;;;;6219638;23;20126;-84
2022/04/12 04:15:36;;;;;;;2.30;0.90;;;18.00;49.10;;;;;;6219628;23;20205;-87
2022/04/12 04:18:03;;;;;;;1.48;0.80;;;18.00;49.00;;;;;;6170173;23;20145;-87
2022/04/12 04:20:31;;;;;;;1.65;0.82;;;18.00;49.00;;;;;;6194467;23;20129;-84
2022/04/12 04:23:01;;;;;;;2.28;1.02;;;18.00;49.00;;;;;;6144074;23;20149;-85
2022/04/12 04:25:27;;;;;;;1.15;0.90;;;18.00;49.10;;;;;;6144344;23;20596;-88
2022/04/12 04:27:57;;;;;;;2.75;1.00;;;18.00;49.00;;;;;;6169533;23;20187;-85
2022/04/12 04:30:26;;;;;;;1.98;0.77;;;18.00;48.90;;;;;;6144349;23;20149;-85
2022/04/12 04:32:53;;;;;;;2.65;0.90;;;18.00;48.90;;;;;;6144286;23;20149;-86
2022/04/12 04:35:18;;;;;;;1.67;0.98;;;18.00;48.70;;;;;;6169592;23;20196;-86
2022/04/12 04:37:46;;;;;;;2.55;0.85;;;18.10;48.80;;;;;;6194392;23;20137;-86
2022/04/12 04:40:17;;;;;;;1.58;1.05;;;18.00;48.80;;;;;;6219495;23;20137;-86
2022/04/12 04:42:44;;;;;;;1.20;0.88;;;18.00;48.50;;;;;;6194645;23;20221;-85
2022/04/12 04:45:11;;;;;;;0.80;0.68;;;18.00;48.50;;;;;;6170146;23;20196;-86
2022/04/12 04:47:56;;;;;;;1.90;1.00;;;18.00;48.10;;;;;;6169997;23;20146;-84
2022/04/12 04:50:26;;;;;;;0.80;0.75;;;18.10;48.70;;;;;;6219524;23;20127;-85
2022/04/12 04:52:52;;;;;;;1.35;0.80;;;18.10;48.40;;;;;;6194989;23;20203;-87
2022/04/12 04:55:18;;;;;;;4.20;1.02;;;18.10;48.80;;;;;;6194870;23;20169;-85
2022/04/12 04:57:44;;;;;;;0.98;0.88;;;18.10;48.50;;;;;;6196901;23;20134;-85
2022/04/12 05:00:15;;;;;;;2.08;1.25;;;18.10;48.90;;;;;;6221384;23;20193;-85
2022/04/12 05:02:49;;;;;;;2.58;1.00;;;18.10;48.40;;;;;;6222267;23;20137;-86
2022/04/12 05:05:16;;;;;;;2.05;1.00;;;18.10;48.60;;;;;;6221451;23;20472;-84
2022/04/12 05:07:48;;;;;;;3.05;1.15;;;18.10;48.50;;;;;;6171322;23;20164;-86
2022/04/12 05:10:17;;;;;;;2.45;0.80;;;18.20;48.00;;;;;;6145154;23;20159;-87
2022/04/12 05:12:43;;;;;;;1.17;0.88;;;18.30;47.30;;;;;;6170179;23;20165;-87
2022/04/12 05:15:09;;;;;;;1.25;0.90;;;18.30;47.50;;;;;;6220629;23;20168;-85
2022/04/12 05:17:39;;;;;;;1.58;0.88;;;18.30;47.30;;;;;;6195701;23;20192;-86
2022/04/12 05:20:07;;;;;;;1.48;0.80;;;18.40;47.60;;;;;;6169721;23;20148;-86
2022/04/12 05:22:33;;;;;;;1.23;0.70;;;18.40;47.70;;;;;;6196187;23;20278;-85
2022/04/12 05:24:59;;;;;;;0.88;0.80;;;18.50;47.10;;;;;;6221410;23;20157;-85
2022/04/12 05:27:29;;;;;;;0.70;0.70;;;18.40;47.10;;;;;;6221109;23;20129;-86
2022/04/12 05:30:01;;;;;;;1.00;0.65;;;18.50;47.00;;;;;;6170234;23;20153;-85
2022/04/12 05:32:26;;;;;;;1.23;0.98;;;18.50;47.10;;;;;;6196797;23;20134;-85
2022/04/12 05:34:53;;;;;;;1.83;0.88;;;18.40;47.60;;;;;;6195975;23;20632;-87
2022/04/12 05:37:19;;;;;;;1.58;0.80;;;18.40;47.80;;;;;;6221071;23;20153;-87
2022/04/12 05:39:45;;;;;;;1.30;0.80;;;18.40;46.90;;;;;;6196157;23;20168;-85
2022/04/12 05:42:11;;;;;;;0.90;0.75;;;18.50;47.30;;;;;;6171022;23;20135;-85
2022/04/12 05:44:43;;;;;;;1.63;0.90;;;18.60;46.90;;;;;;6195993;23;20461;-86
2022/04/12 05:47:14;;;;;;;2.35;0.88;;;18.50;47.00;;;;;;6147294;23;20153;-85
2022/04/12 05:49:40;;;;;;;1.00;0.80;;;18.50;47.00;;;;;;6145666;23;20242;-86
2022/04/12 05:52:08;;;;;;;1.85;0.73;;;18.50;47.00;;;;;;6195692;23;20169;-85
2022/04/12 05:54:33;;;;;;;1.42;0.80;;;18.50;46.90;;;;;;6171508;23;20138;-87
2022/04/12 05:57:00;;;;;;;0.80;0.77;;;18.50;46.30;;;;;;6220866;23;20846;-86
2022/04/12 05:59:25;;;;;;;2.35;0.93;;;18.60;46.50;;;;;;6220245;23;20193;-85
2022/04/12 06:01:52;;;;;;;1.35;0.90;;;18.70;46.40;;;;;;6194300;23;20520;-87
2022/04/12 06:04:17;;;;;;;1.08;0.70;;;18.60;46.90;;;;;;6194939;23;20141;-85
2022/04/12 06:06:44;;;;;;;1.25;0.77;;;18.60;46.20;;;;;;6195130;23;20148;-88
2022/04/12 06:09:10;;;;;;;1.83;0.80;;;18.70;46.30;;;;;;6170832;23;20199;-85
2022/04/12 06:11:35;;;;;;;1.25;0.68;;;18.70;46.00;;;;;;6195804;23;20130;-86
2022/04/12 06:14:02;;;;;;;2.08;1.10;;;18.70;46.10;;;;;;6170529;23;20154;-86
2022/04/12 06:16:31;;;;;;;1.00;0.82;;;18.70;46.30;;;;;;6220830;23;20165;-85
2022/04/12 06:19:00;;;;;;;0.85;0.70;;;18.70;46.70;;;;;;6144689;23;20547;-87
2022/04/12 06:21:27;;;;;;;1.10;1.00;;;18.70;46.50;;;;;;6121444;23;20149;-87
2022/04/12 06:23:53;;;;;;;1.92;0.70;;;18.70;46.70;;;;;;6198080;23;20129;-85
2022/04/12 06:26:19;;;;;;;0.70;0.70;;;18.80;46.40;;;;;;6197624;23;20133;-85
2022/04/12 06:28:45;;;;;;;1.00;0.90;;;18.80;46.50;;;;;;6198989;23;20137;-87
2022/04/12 06:31:10;;;;;;;1.02;0.73;;;18.80;45.90;;;;;;6197442;23;20153;-86
2022/04/12 06:33:36;;;;;;;1.05;0.80;;;18.80;46.10;;;;;;6248254;23;20130;-85
2022/04/12 06:36:02;;;;;;;1.50;0.70;;;18.80;46.00;;;;;;6196139;23;20192;-85
2022/04/12 06:38:29;;;;;;;1.88;0.73;;;18.90;45.90;;;;;;6220927;23;20138;-85
2022/04/12 06:40:55;;;;;;;1.10;0.90;;;18.90;45.60;;;;;;6220468;23;20129;-84
2022/04/12 06:43:22;;;;;;;1.58;0.90;;;18.90;45.30;;;;;;6195364;23;20130;-86
2022/04/12 06:45:50;;;;;;;1.10;0.88;;;18.90;45.80;;;;;;6195229;23;20199;-85
2022/04/12 06:48:15;;;;;;;2.22;0.90;;;18.90;45.90;;;;;;6197426;23;20484;-83
2022/04/12 06:50:43;;;;;;;2.47;0.60;;;18.90;45.30;;;;;;6171930;23;20627;-86
2022/04/12 06:53:09;;;;;;;2.10;0.80;;;18.80;45.50;;;;;;6197982;23;20137;-85
2022/04/12 06:55:35;;;;;;;1.33;0.80;;;18.90;45.00;;;;;;6223247;23;20191;-86
2022/04/12 06:58:00;;;;;;;1.00;0.88;;;18.90;45.70;;;;;;6198284;23;20514;-85
2022/04/12 07:00:27;;;;;;;1.33;1.17;;;18.90;45.60;;;;;;6194984;23;20596;-83
2022/04/12 07:02:56;;;;;;;1.17;1.00;;;19.00;45.00;;;;;;6221689;23;20129;-85
2022/04/12 07:05:22;;;;;;;1.52;1.00;;;19.00;45.40;;;;;;6171177;23;20161;-85
2022/04/12 07:07:48;;;;;;;4.60;0.98;;;19.00;44.90;;;;;;6223534;23;20209;-87
2022/04/12 07:10:18;;;;;;;1.20;0.80;;;19.00;45.90;;;;;;6221511;23;20234;-84
2022/04/12 07:12:53;;;;;;;1.13;0.80;;;19.00;45.30;;;;;;6147537;23;20236;-84
2022/04/12 07:15:19;;;;;;;1.02;0.80;;;19.00;45.30;;;;;;6176775;23;20200;-87
2022/04/12 07:17:49;;;;;;;0.70;0.70;;;19.10;45.30;;;;;;6198206;23;20492;-84
2022/04/12 07:20:15;;;;;;;2.17;0.80;;;19.00;45.50;;;;;;6147428;23;20153;-83
2022/04/12 07:22:41;;;;;;;1.13;0.80;;;19.00;45.10;;;;;;6248391;23;20140;-82
2022/04/12 07:25:08;;;;;;;2.47;0.77;;;19.00;45.50;;;;;;6221274;23;20460;-84
2022/04/12 07:27:36;;;;;;;0.70;0.65;;;19.00;44.80;;;;;;6196893;23;20142;-83
2022/04/12 07:30:08;;;;;;;1.55;1.00;;;19.10;44.90;;;;;;6199005;23;20142;-82
2022/04/12 07:32:33;;;;;;;1.98;1.05;;;19.10;44.30;;;;;;6151899;23;20289;-81
2022/04/12 07:34:59;;;;;;;1.05;0.77;;;19.10;44.70;;;;;;6249644;23;20631;-84
2022/04/12 07:37:25;;;;;;;0.70;0.70;;;19.20;44.40;;;;;;6195509;23;20137;-81
2022/04/12 07:39:54;;;;;;;1.67;0.70;;;19.20;44.10;;;;;;6195862;23;20573;-83
2022/04/12 07:42:20;;;;;;;5.00;1.48;;;19.20;44.80;;;;;;6221538;23;20129;-85
2022/04/12 07:44:46;;;;;;;6.30;1.98;;;19.10;44.90;;;;;;6220510;23;20126;-82
2022/04/12 07:47:12;;;;;;;2.78;1.10;;;19.10;44.70;;;;;;6246863;23;20129;-86
2022/04/12 07:49:38;;;;;;;2.58;1.33;;;19.20;44.20;;;;;;6196129;23;20145;-83
2022/04/12 07:52:05;;;;;;;0.75;0.70;;;19.20;44.20;;;;;;6195524;23;20176;-83
2022/04/12 07:54:30;;;;;;;4.00;1.10;;;19.30;44.60;;;;;;6220328;23;20190;-85
2022/04/12 07:56:56;;;;;;;1.05;0.90;;;19.20;44.40;;;;;;6220336;23;20551;-86
2022/04/12 07:59:21;;;;;;;1.33;0.68;;;19.20;44.80;;;;;;6247113;23;20209;-84
2022/04/12 08:01:47;;;;;;;1.83;0.70;;;19.10;44.50;;;;;;6246350;23;20137;-82
2022/04/12 08:04:13;;;;;;;0.77;0.68;;;19.30;44.00;;;;;;6247035;23;20134;-83
2022/04/12 08:06:39;;;;;;;0.98;0.80;;;19.20;44.50;;;;;;6220993;23;20179;-83
2022/04/12 08:09:05;;;;;;;1.20;0.70;;;19.20;45.10;;;;;;6249893;23;20554;-82
2022/04/12 08:11:34;;;;;;;0.80;0.80;;;19.20;44.60;;;;;;6221834;23;20140;-82
2022/04/12 08:14:00;;;;;;;1.85;0.73;;;19.20;44.40;;;;;;6170883;23;20557;-82
2022/04/12 08:16:26;;;;;;;0.98;0.70;;;19.10;44.30;;;;;;6248211;23;20180;-82
2022/04/12 08:18:53;;;;;;;1.75;0.80;;;19.20;44.50;;;;;;6220486;23;20129;-83
2022/04/12 08:21:31;;;;;;;2.35;0.73;;;19.20;44.40;;;;;;6220929;23;20126;-83
2022/04/12 08:23:57;;;;;;;1.20;0.80;;;19.30;44.70;;;;;;6247914;23;20129;-84
2022/04/12 08:26:24;;;;;;;2.10;1.00;;;19.10;44.80;;;;;;6196081;23;20137;-81
2022/04/12 08:28:50;;;;;;;2.45;1.08;;;19.20;44.60;;;;;;6220267;23;20523;-82
2022/04/12 08:31:15;;;;;;;0.85;0.63;;;19.20;44.60;;;;;;6247428;23;20129;-84
2022/04/12 08:33:41;;;;;;;2.30;0.70;;;19.20;44.50;;;;;;6246901;23;20145;-82
2022/04/12 08:36:07;;;;;;;2.75;0.85;;;19.30;44.20;;;;;;6219622;23;20165;-83
2022/04/12 08:38:32;;;;;;;5.82;0.88;;;19.20;44.00;;;;;;6246784;23;20133;-83
2022/04/12 08:40:58;;;;;;;2.58;0.80;;;19.30;44.90;;;;;;6193738;23;20148;-83
2022/04/12 08:43:25;;;;;;;0.95;0.77;;;19.30;44.10;;;;;;6219351;23;20138;-83
2022/04/12 08:45:50;;;;;;;2.50;1.05;;;19.40;43.40;;;;;;6219803;23;20149;-83
2022/04/12 08:48:16;;;;;;;2.50;0.70;;;19.30;44.10;;;;;;6219302;23;20157;-83
2022/04/12 08:50:43;;;;;;;1.38;0.90;;;19.30;43.80;;;;;;6194770;23;20271;-81
2022/04/12 08:53:09;;;;;;;1.63;0.80;;;19.30;44.20;;;;;;6195240;23;20143;-82
2022/04/12 08:55:36;;;;;;;1.13;0.90;;;19.30;44.00;;;;;;6170126;23;20181;-82
2022/04/12 08:58:01;;;;;;;3.53;0.90;;;19.30;44.10;;;;;;6170081;23;20192;-83
2022/04/12 09:00:27;;;;;;;3.28;0.80;;;19.30;44.20;;;;;;6194165;23;20193;-83
2022/04/12 09:02:57;;;;;;;3.75;0.95;;;19.30;44.50;;;;;;6195848;23;20129;-81
2022/04/12 09:05:23;;;;;;;2.45;1.17;;;19.30;44.10;;;;;;6170656;23;20581;-83
2022/04/12 09:07:49;;;;;;;5.03;1.13;;;19.30;44.00;;;;;;6219240;23;20136;-82
2022/04/12 09:10:16;;;;;;;3.05;1.08;;;19.20;45.70;;;;;;6219074;23;20461;-83
2022/04/12 09:12:42;;;;;;;0.90;0.80;;;19.20;43.70;;;;;;6219745;23;20650;-82
2022/04/12 09:15:10;;;;;;;4.93;1.02;;;19.20;44.70;;;;;;6246803;23;20204;-84
2022/04/12 09:17:37;;;;;;;1.50;0.90;;;19.20;45.50;;;;;;6219275;23;20150;-83
2022/04/12 09:20:10;;;;;;;3.97;1.30;;;19.20;43.80;;;;;;6195004;23;20138;-83
2022/04/12 09:22:36;;;;;;;1.90;0.93;;;19.20;44.40;;;;;;6220368;23;20244;-82
2022/04/12 09:25:07;;;;;;;1.45;0.60;;;19.30;44.60;;;;;;6248239;23;20210;-81
2022/04/12 09:27:34;;;;;;;1.80;0.77;;;19.20;42.80;;;;;;6146834;23;20202;-82
2022/04/12 09:30:02;;;;;;;1.02;0.80;;;19.30;43.90;;;;;;6220834;23;20134;-81
2022/04/12 09:32:28;;;;;;;2.00;1.00;;;19.20;43.50;;;;;;6195011;23;20173;-81
2022/04/12 09:34:55;;;;;;;1.05;0.60;;;19.20;43.80;;;;;;6195011;23;20142;-82
2022/04/12 09:37:27;;;;;;;0.95;0.70;;;19.20;44.00;;;;;;6247369;23;20126;-83
2022/04/12 09:40:08;;;;;;;3.30;1.20;;;19.20;44.00;;;;;;6220221;23;20157;-82
2022/04/12 09:42:54;;;;;;;4.28;1.05;;;19.30;44.20;;;;;;6221718;23;20125;-83
2022/04/12 09:45:22;;;;;;;1.60;1.00;;;19.20;43.20;;;;;;6248271;23;20129;-83
2022/04/12 09:47:49;;;;;;;1.98;0.90;;;19.30;43.80;;;;;;6221494;23;20130;-81
2022/04/12 09:50:15;;;;;;;1.23;0.75;;;19.20;44.30;;;;;;6220914;23;20164;-80
2022/04/12 09:53:06;;;;;;;2.03;0.70;;;19.20;44.70;;;;;;6220602;23;20134;-81
2022/04/12 09:55:49;;;;;;;1.80;0.90;;;19.20;43.00;;;;;;6220423;23;20170;-82
2022/04/12 09:58:16;;;;;;;1.25;0.90;;;19.20;45.20;;;;;;6220945;23;20160;-82
2022/04/12 10:00:43;;;;;;;1.00;0.60;;;19.20;44.80;;;;;;6195461;23;20276;-83
2022/04/12 10:03:10;;;;;;;1.15;0.82;;;19.20;43.60;;;;;;6220726;23;20149;-83
2022/04/12 10:05:36;;;;;;;1.85;0.80;;;19.30;44.20;;;;;;6196372;23;20591;-82
2022/04/12 10:08:04;;;;;;;1.00;0.65;;;19.30;43.20;;;;;;6247912;23;20604;-83
2022/04/12 10:10:30;;;;;;;1.00;0.80;;;19.30;44.00;;;;;;6221205;23;20465;-85
2022/04/12 10:12:59;;;;;;;2.38;0.90;;;19.20;44.40;;;;;;6221037;23;20136;-84
2022/04/12 10:15:33;;;;;;;4.03;1.00;;;19.30;43.70;;;;;;6199170;23;20209;-83
2022/04/12 10:18:06;;;;;;;2.70;0.85;;;19.30;43.40;;;;;;6122401;23;20184;-84
2022/04/12 10:20:39;;;;;;;1.85;1.10;;;19.30;44.30;;;;;;6147249;23;20146;-83
2022/04/12 10:23:05;;;;;;;1.77;0.90;;;19.20;43.90;;;;;;6147418;23;20240;-86
2022/04/12 10:25:31;;;;;;;1.67;1.20;;;19.20;44.20;;;;;;6197975;23;20481;-83
2022/04/12 10:27:58;;;;;;;0.77;0.60;;;19.20;43.40;;;;;;6221278;23;20130;-83
2022/04/12 10:30:26;;;;;;;2.60;0.90;;;19.20;43.30;;;;;;6197283;23;20129;-84
2022/04/12 10:33:06;;;;;;;2.67;0.70;;;19.20;44.40;;;;;;6222833;23;20126;-82
2022/04/12 10:36:03;;;;;;;2.63;0.80;;;19.30;44.60;;;;;;6197133;23;20173;-82
2022/04/12 10:38:42;;;;;;;2.17;0.80;;;19.20;44.90;;;;;;6227015;23;20196;-84
2022/04/12 10:41:12;;;;;;;0.70;0.70;;;19.30;43.70;;;;;;6249238;23;20130;-83
2022/04/12 10:43:38;;;;;;;2.28;0.80;;;19.30;43.60;;;;;;6248647;23;20565;-83
2022/04/12 10:46:06;;;;;;;3.67;0.80;;;19.30;44.20;;;;;;6195714;23;20176;-83
2022/04/12 10:48:32;;;;;;;0.80;0.73;;;19.30;43.40;;;;;;6172081;23;20191;-83
2022/04/12 10:50:59;;;;;;;3.65;1.05;;;19.20;43.60;;;;;;6196469;23;20473;-83
2022/04/12 10:53:57;;;;;;;2.25;0.90;;;19.30;44.20;;;;;;6220776;23;20193;-84
2022/04/12 10:56:25;;;;;;;7.10;1.35;;;19.20;44.20;;;;;;6230519;23;20256;-83
2022/04/12 10:58:51;;;;;;;1.30;1.00;;;19.20;44.30;;;;;;6172262;23;20149;-84
2022/04/12 11:01:33;;;;;;;2.25;0.88;;;19.20;44.90;;;;;;6247817;23;20189;-84
2022/04/12 11:04:01;;;;;;;2.35;0.70;;;19.20;43.10;;;;;;6220431;23;20140;-84
2022/04/12 11:06:28;;;;;;;3.33;0.80;;;19.20;43.30;;;;;;6220050;23;20145;-84
2022/04/12 11:08:56;;;;;;;4.60;0.80;;;19.20;42.70;;;;;;6218842;23;20149;-83
2022/04/12 11:11:27;;;;;;;2.60;0.70;;;19.20;45.20;;;;;;6219450;23;20221;-83
2022/04/12 11:13:53;;;;;;;4.20;0.70;;;19.20;43.60;;;;;;6219406;23;20157;-83
2022/04/12 11:16:23;;;;;;;4.50;1.00;;;19.20;43.00;;;;;;6220237;23;20176;-84
2022/04/12 11:18:53;;;;;;;1.58;0.73;;;19.20;43.50;;;;;;6194879;23;20585;-84
2022/04/12 11:21:20;;;;;;;2.45;0.60;;;19.30;42.70;;;;;;6220189;23;20130;-84
2022/04/12 11:23:49;;;;;;;2.60;0.80;;;19.20;42.50;;;;;;6195524;23;20596;-84
2022/04/12 11:26:36;;;;;;;2.35;0.93;;;19.30;42.70;;;;;;6220967;23;20216;-83
2022/04/12 11:29:01;;;;;;;1.33;0.90;;;19.30;42.70;;;;;;6221001;23;20209;-84
2022/04/12 11:31:27;;;;;;;1.60;0.70;;;19.30;42.90;;;;;;6220190;23;20137;-84
2022/04/12 11:33:53;;;;;;;2.78;0.85;;;19.30;43.70;;;;;;6247336;23;20130;-84
2022/04/12 11:36:19;;;;;;;3.72;1.08;;;19.40;42.60;;;;;;6195554;23;20513;-84
2022/04/12 11:38:45;;;;;;;7.28;1.20;;;19.30;44.00;;;;;;6220257;23;20217;-84
2022/04/12 11:41:11;;;;;;;13.48;1.30;;;19.30;42.40;;;;;;6220026;23;20129;-83
2022/04/12 11:43:37;;;;;;;6.63;1.10;;;19.30;42.10;;;;;;6247001;23;20149;-83
2022/04/12 11:46:03;;;;;;;4.10;0.95;;;19.30;43.20;;;;;;6195180;23;20138;-83
2022/04/12 11:48:29;;;;;;;2.83;1.05;;;19.30;42.50;;;;;;6219938;23;20527;-83
2022/04/12 11:50:56;;;;;;;5.22;1.17;;;19.30;42.50;;;;;;6219726;23;20177;-83
2022/04/12 11:53:23;;;;;;;12.32;1.90;;;19.30;42.50;;;;;;6246522;23;20557;-84
2022/04/12 11:55:49;;;;;;;10.02;1.80;;;19.30;42.70;;;;;;6194929;23;20516;-83
2022/04/12 11:58:15;;;;;;;6.25;1.00;;;19.30;43.20;;;;;;6219800;23;20159;-84
2022/04/12 12:00:41;;;;;;;7.97;1.33;;;19.30;42.60;;;;;;6219857;23;20220;-83
2022/04/12 12:03:17;;;;;;;10.77;1.27;;;19.20;43.30;;;;;;6169657;23;20604;-84
2022/04/12 12:05:45;;;;;;;7.28;1.10;;;19.20;43.50;;;;;;6142253;23;20248;-84
2022/04/12 12:08:13;;;;;;;3.70;1.00;;;19.20;43.00;;;;;;6166634;23;20150;-83
2022/04/12 12:10:40;;;;;;;5.82;1.20;;;19.20;43.20;;;;;;6142289;23;20150;-83
2022/04/12 12:13:08;;;;;;;3.22;1.00;;;19.30;43.40;;;;;;6166624;23;20168;-83
2022/04/12 12:15:35;;;;;;;5.30;1.40;;;19.20;44.60;;;;;;6166511;23;20181;-83
2022/04/12 12:18:07;;;;;;;6.30;1.20;;;19.20;44.80;;;;;;6142406;23;20149;-83
2022/04/12 12:20:35;;;;;;;5.55;1.00;;;19.30;44.70;;;;;;6144044;23;20150;-84
2022/04/12 12:23:03;;;;;;;4.15;1.17;;;19.20;45.00;;;;;;6145010;23;20236;-83
2022/04/12 12:25:54;;;;;;;5.65;0.90;;;19.20;44.70;;;;;;6144875;23;20199;-83
2022/04/12 12:28:23;;;;;;;6.10;1.38;;;19.20;44.50;;;;;;6177029;23;20153;-83
2022/04/12 12:31:03;;;;;;;5.78;1.25;;;19.20;44.80;;;;;;6145181;23;20208;-84
2022/04/12 12:33:44;;;;;;;3.75;1.02;;;19.30;44.70;;;;;;6177631;23;20141;-84
2022/04/12 12:36:24;;;;;;;6.05;1.55;;;19.20;44.60;;;;;;6246165;23;20267;-83
2022/04/12 12:38:52;;;;;;;3.85;1.00;;;19.30;45.00;;;;;;6219543;23;20152;-84
2022/04/12 12:41:27;;;;;;;5.53;1.00;;;19.20;44.00;;;;;;6195105;23;20577;-83
2022/04/12 12:43:55;;;;;;;3.92;1.27;;;19.30;44.30;;;;;;6194632;23;20153;-83
2022/04/12 12:46:23;;;;;;;9.82;1.23;;;19.20;44.50;;;;;;6194554;23;20153;-84
2022/04/12 12:49:05;;;;;;;5.72;1.27;;;19.30;44.60;;;;;;6194315;23;20147;-83
2022/04/12 12:51:31;;;;;;;5.82;1.30;;;19.30;44.50;;;;;;6219398;23;20134;-84